KGUP/GUP METAR and TAF weather

Enter ICAO airport designator
Station Type Date Time Source
KGUP METAR 2021/09/16 19:53 UTC NOAA

KGUP 161953Z AUTO 23013G22KT 10SM CLR 28/M01 A3014 RMK AO2 PK WND 23027/1911 SLP056 T02831011


Station Type Date Time Source
KGUP Decoded METAR 2021/09/16 19:53 UTC NOAA

GALLUP MUNICIPAL AIRPORT, NM, United States (KGUP) 35-31N 108-47W 1971M
Sep 16, 2021 - 03:53 PM EDT / 2021.09.16 1953 UTC
Wind: from the SW (230 degrees) at 15 MPH (13 KT) gusting to 25 MPH (22 KT):0
Visibility: 10 mile(s):0
Sky conditions: clear
Temperature: 82.9 F (28.3 C)
Dew Point: 30.0 F (-1.1 C)
Relative Humidity: 14%
Pressure (altimeter): 30.14 in. Hg (1020 hPa)
ob: KGUP 161953Z AUTO 23013G22KT 10SM CLR 28/M01 A3014 RMK AO2 PK WND 23027/1911 SLP056 T02831011
cycle: 20

Station Type Date Time Source
KGUP TAF 2021/09/16 18:42 UTC NOAA

TAF KGUP 161738Z 1618/1718 25014G24KT P6SM FEW120
FM170200 24009KT P6SM SKC
FM170500 VRB05KT P6SM SKC

Example: see airport list